PROFILE

 METAR AND TAF INFORMATION
ADDS - METARS form results

(0057 UTC 13 November 2018)
http://aviationweather.gov/metar/data/
 
MMMY 130040Z 33010G20KT 8SM OVC070 11/06 A3021 RMK 8/07/ -RA INTMT ISOL SC
TAF MMMY 122339Z 1300/1406 30010G22KT P6SM -RA BKN040 OVC070 TX10/1320Z TN04/1312Z FM130300 35015G25KT 5SM -RA BKN020 OVC040 TEMPO 1306/1310 3SM -RA OVC010 FM131600 33015KT 6SM HZ BKN015 BKN070 BECMG 1320/1321 33020KT FM140100 34010KT P6SM BKN030 

 AIRPORT MAP

 RUNWAY INFORMATION
Runway 11 Runway length 9843 ft Runway width 148 ft
Runway elevation 1277 ft Runway displaced threshold 0 ft Runway heading 121
Runway 29 Runway length 9843 ft Runway width 148 ft
Runway elevation 1234 ft Runway displaced threshold 0 ft Runway heading 301
Runway 16 Runway length 5909 ft Runway width 98 ft
Runway elevation 1271 ft Runway displaced threshold 0 ft Runway heading 165
Runway 34 Runway length 5909 ft Runway width 98 ft
Runway elevation 1254 ft Runway displaced threshold 0 ft Runway heading 345

 AIRPORT FREQUENCIES
Type APP Name MONTERREY Frequency 119.75 MHZ
Type ATIS Name ATIS Frequency 127.7 MHZ
Type GND Name GND Frequency 121.9 MHZ
Type TWR Name MONTERREY Frequency 118.1 MHZ

 AIRPORT NEAR NAVIGATION AIDS
Type VOR-DME Name Monterrey Frequency 114700 KHZ